Time,TemperatureF,DewpointF,PressureIn,WindDirection,WindDirectionDegrees,WindSpeedMPH,WindSpeedGustMPH,Humidity,HourlyPrecipIn,Conditions,Clouds,dailyrainin,SolarRadiationWatts/m^2,SoftwareType,DateUTC
2013-10-16 00:04:00,68.0,67.0,-100.00,East,98,0.0,2.0,95,0.00,,,0.00,0.000000,,2013-10-16 04:04:00,
2013-10-16 00:11:00,67.0,66.0,-100.00,North,360,0.0,2.0,96,0.00,,,0.00,0.000000,,2013-10-16 04:11:00,
2013-10-16 00:44:00,67.0,66.0,-100.00,North,360,0.0,2.0,96,0.00,,,0.00,0.000000,,2013-10-16 04:44:00,
2013-10-16 00:54:00,67.0,66.0,-100.00,North,360,0.0,2.0,96,0.00,,,0.00,0.000000,,2013-10-16 04:54:00,
2013-10-16 01:04:00,67.0,66.0,-100.00,North,360,0.0,2.0,96,0.00,,,0.00,0.000000,,2013-10-16 05:04:00,
2013-10-16 01:11:00,67.0,66.0,-100.00,East,83,0.0,0.0,96,0.00,,,0.00,0.000000,,2013-10-16 05:11:00,
2013-10-16 01:43:00,67.0,66.0,-100.00,East,83,0.0,0.0,96,0.00,,,0.00,0.000000,,2013-10-16 05:43:00,
2013-10-16 01:53:00,67.0,66.0,-100.00,East,83,0.0,0.0,96,0.00,,,0.00,0.000000,,2013-10-16 05:53:00,
2013-10-16 02:03:00,67.0,66.0,-100.00,East,83,0.0,0.0,96,0.00,,,0.00,0.000000,,2013-10-16 06:03:00,
2013-10-16 02:11:00,66.0,65.0,-100.00,SW,225,0.0,0.0,96,0.00,,,0.00,0.000000,,2013-10-16 06:11:00,
2013-10-16 02:43:00,66.0,65.0,-100.00,SW,225,0.0,0.0,96,0.00,,,0.00,0.000000,,2013-10-16 06:43:00,
2013-10-16 02:52:00,66.0,65.0,-100.00,SW,225,0.0,0.0,96,0.00,,,0.00,0.000000,,2013-10-16 06:52:00,
2013-10-16 03:02:00,66.0,65.0,-100.00,SW,225,0.0,0.0,96,0.00,,,0.00,0.000000,,2013-10-16 07:02:00,
2013-10-16 03:11:00,65.0,64.0,-100.00,SW,223,0.0,0.0,96,0.00,,,0.00,0.000000,,2013-10-16 07:11:00,
2013-10-16 03:42:00,65.0,64.0,-100.00,SW,223,0.0,0.0,96,0.00,,,0.00,0.000000,,2013-10-16 07:42:00,
2013-10-16 03:53:00,65.0,64.0,-100.00,SW,223,0.0,0.0,96,0.00,,,0.00,0.000000,,2013-10-16 07:53:00,
2013-10-16 04:02:00,65.0,64.0,-100.00,SW,223,0.0,0.0,96,0.00,,,0.00,0.000000,,2013-10-16 08:02:00,
2013-10-16 04:11:00,65.0,64.0,-100.00,NNE,28,0.0,0.0,96,0.00,,,0.00,0.000000,,2013-10-16 08:11:00,
2013-10-16 04:42:00,65.0,64.0,-100.00,NNE,28,0.0,0.0,96,0.00,,,0.00,0.000000,,2013-10-16 08:42:00,
2013-10-16 04:52:00,65.0,64.0,-100.00,NNE,28,0.0,0.0,96,0.00,,,0.00,0.000000,,2013-10-16 08:52:00,
2013-10-16 05:02:00,65.0,64.0,-100.00,NNE,28,0.0,0.0,96,0.00,,,0.00,0.000000,,2013-10-16 09:02:00,
2013-10-16 05:11:00,66.0,65.0,-100.00,NNW,343,0.0,0.0,97,0.00,,,0.00,0.000000,,2013-10-16 09:11:00,
2013-10-16 05:43:00,66.0,65.0,-100.00,NNW,343,0.0,0.0,97,0.00,,,0.00,0.000000,,2013-10-16 09:43:00,
2013-10-16 05:54:00,66.0,65.0,-100.00,NNW,343,0.0,0.0,97,0.00,,,0.00,0.000000,,2013-10-16 09:54:00,
2013-10-16 06:03:00,66.0,65.0,-100.00,NNW,343,0.0,0.0,97,0.00,,,0.00,0.000000,,2013-10-16 10:03:00,
2013-10-16 06:11:00,66.0,65.0,-100.00,NNW,335,0.0,0.0,97,0.00,,,0.00,0.000000,,2013-10-16 10:11:00,
2013-10-16 06:42:00,66.0,65.0,-100.00,NNW,335,0.0,0.0,97,0.00,,,0.00,0.000000,,2013-10-16 10:42:00,
2013-10-16 06:53:00,66.0,65.0,-100.00,NNW,335,0.0,0.0,97,0.00,,,0.00,0.000000,,2013-10-16 10:53:00,
2013-10-16 07:03:00,66.0,65.0,-100.00,NNW,335,0.0,0.0,97,0.00,,,0.00,0.000000,,2013-10-16 11:03:00,
2013-10-16 07:11:00,66.0,65.0,-100.00,NW,320,0.0,0.0,97,0.00,,,0.00,0.000000,,2013-10-16 11:11:00,
2013-10-16 07:42:00,66.0,65.0,-100.00,NW,320,0.0,0.0,97,0.00,,,0.00,0.000000,,2013-10-16 11:42:00,
2013-10-16 07:52:00,66.0,65.0,-100.00,NW,320,0.0,0.0,97,0.00,,,0.00,0.000000,,2013-10-16 11:52:00,
2013-10-16 08:02:00,66.0,65.0,-100.00,NW,320,0.0,0.0,97,0.00,,,0.00,0.000000,,2013-10-16 12:02:00,
2013-10-16 08:11:00,68.0,67.0,-100.00,North,353,0.0,2.0,97,0.00,,,0.00,12.000000,,2013-10-16 12:11:00,
2013-10-16 08:43:00,68.0,67.0,-100.00,North,353,0.0,2.0,97,0.00,,,0.00,12.000000,,2013-10-16 12:43:00,
2013-10-16 08:52:00,68.0,67.0,-100.00,North,353,0.0,2.0,97,0.00,,,0.00,12.000000,,2013-10-16 12:52:00,
2013-10-16 09:02:00,68.0,67.0,-100.00,North,353,0.0,2.0,97,0.00,,,0.00,12.000000,,2013-10-16 13:02:00,
2013-10-16 09:11:00,73.0,72.0,-100.00,NNW,348,1.0,4.0,97,0.00,,,0.00,96.000000,,2013-10-16 13:11:00,
2013-10-16 09:42:00,73.0,72.0,-100.00,NNW,348,1.0,4.0,97,0.00,,,0.00,96.000000,,2013-10-16 13:42:00,
2013-10-16 09:52:00,73.0,72.0,-100.00,NNW,348,1.0,4.0,97,0.00,,,0.00,96.000000,,2013-10-16 13:52:00,
2013-10-16 10:02:00,73.0,72.0,-100.00,NNW,348,1.0,4.0,97,0.00,,,0.00,96.000000,,2013-10-16 14:02:00,
2013-10-16 10:11:00,81.0,72.0,-100.00,East,92,2.0,5.0,75,0.00,,,0.00,385.000000,,2013-10-16 14:11:00,
2013-10-16 10:42:00,81.0,72.0,-100.00,East,92,2.0,5.0,75,0.00,,,0.00,385.000000,,2013-10-16 14:42:00,
2013-10-16 10:52:00,81.0,72.0,-100.00,East,92,2.0,5.0,75,0.00,,,0.00,385.000000,,2013-10-16 14:52:00,
2013-10-16 11:02:00,81.0,72.0,-100.00,East,92,2.0,5.0,75,0.00,,,0.00,385.000000,,2013-10-16 15:02:00,
2013-10-16 11:11:00,85.0,70.0,-100.00,East,92,2.0,5.0,60,0.00,,,0.00,546.000000,,2013-10-16 15:11:00,
2013-10-16 11:44:00,85.0,70.0,-100.00,East,92,2.0,5.0,60,0.00,,,0.00,546.000000,,2013-10-16 15:44:00,
2013-10-16 11:53:00,85.0,70.0,-100.00,East,92,2.0,5.0,60,0.00,,,0.00,546.000000,,2013-10-16 15:53:00,
2013-10-16 12:03:00,85.0,70.0,-100.00,East,92,2.0,5.0,60,0.00,,,0.00,546.000000,,2013-10-16 16:03:00,
2013-10-16 12:11:00,86.0,67.0,-100.00,North,351,3.0,7.0,54,0.00,,,0.00,573.000000,,2013-10-16 16:11:00,
2013-10-16 12:42:00,86.0,67.0,-100.00,North,351,3.0,7.0,54,0.00,,,0.00,573.000000,,2013-10-16 16:42:00,
2013-10-16 12:53:00,86.0,67.0,-100.00,North,351,3.0,7.0,54,0.00,,,0.00,573.000000,,2013-10-16 16:53:00,
2013-10-16 13:02:00,86.0,67.0,-100.00,North,351,3.0,7.0,54,0.00,,,0.00,573.000000,,2013-10-16 17:02:00,
2013-10-16 13:11:00,88.0,66.0,-100.00,NW,307,3.0,6.0,48,0.00,,,0.00,430.000000,,2013-10-16 17:11:00,
2013-10-16 13:43:00,88.0,66.0,-100.00,NW,307,3.0,6.0,48,0.00,,,0.00,430.000000,,2013-10-16 17:43:00,
2013-10-16 13:52:00,88.0,66.0,-100.00,NW,307,3.0,6.0,48,0.00,,,0.00,430.000000,,2013-10-16 17:52:00,
2013-10-16 14:02:00,88.0,66.0,-100.00,NW,307,3.0,6.0,48,0.00,,,0.00,430.000000,,2013-10-16 18:02:00,
2013-10-16 14:11:00,89.0,65.0,-100.00,NNW,334,4.0,7.0,46,0.00,,,0.00,481.000000,,2013-10-16 18:11:00,
2013-10-16 14:42:00,89.0,65.0,-100.00,NNW,334,4.0,7.0,46,0.00,,,0.00,481.000000,,2013-10-16 18:42:00,
2013-10-16 14:52:00,89.0,65.0,-100.00,NNW,334,4.0,7.0,46,0.00,,,0.00,481.000000,,2013-10-16 18:52:00,
2013-10-16 15:02:00,89.0,65.0,-100.00,NNW,334,4.0,7.0,46,0.00,,,0.00,481.000000,,2013-10-16 19:02:00,
2013-10-16 15:11:00,85.0,64.0,-100.00,NNE,32,2.0,8.0,50,0.00,,,0.00,545.000000,,2013-10-16 19:11:00,
2013-10-16 15:42:00,85.0,64.0,-100.00,NNE,32,2.0,8.0,50,0.00,,,0.00,545.000000,,2013-10-16 19:42:00,
2013-10-16 15:52:00,85.0,64.0,-100.00,NNE,32,2.0,8.0,50,0.00,,,0.00,545.000000,,2013-10-16 19:52:00,
2013-10-16 16:03:00,85.0,64.0,-100.00,NNE,32,2.0,8.0,50,0.00,,,0.00,545.000000,,2013-10-16 20:03:00,
2013-10-16 16:11:00,91.0,64.0,-100.00,North,357,3.0,9.0,41,0.00,,,0.00,580.000000,,2013-10-16 20:11:00,
2013-10-16 16:43:00,91.0,64.0,-100.00,North,357,3.0,9.0,41,0.00,,,0.00,580.000000,,2013-10-16 20:43:00,
2013-10-16 16:52:00,91.0,64.0,-100.00,North,357,3.0,9.0,41,0.00,,,0.00,580.000000,,2013-10-16 20:52:00,
2013-10-16 17:02:00,91.0,64.0,-100.00,North,357,3.0,9.0,41,0.00,,,0.00,580.000000,,2013-10-16 21:02:00,
2013-10-16 17:11:00,88.0,64.0,-100.00,NW,323,2.0,6.0,45,0.00,,,0.00,282.000000,,2013-10-16 21:11:00,
2013-10-16 17:44:00,88.0,64.0,-100.00,NW,323,2.0,6.0,45,0.00,,,0.00,282.000000,,2013-10-16 21:44:00,
2013-10-16 17:54:00,88.0,64.0,-100.00,NW,323,2.0,6.0,45,0.00,,,0.00,282.000000,,2013-10-16 21:54:00,
2013-10-16 18:04:00,88.0,64.0,-100.00,NW,323,2.0,6.0,45,0.00,,,0.00,282.000000,,2013-10-16 22:04:00,
2013-10-16 18:11:00,87.0,67.0,-100.00,North,354,2.0,4.0,51,0.00,,,0.00,147.000000,,2013-10-16 22:11:00,
2013-10-16 18:42:00,87.0,67.0,-100.00,North,354,2.0,4.0,51,0.00,,,0.00,147.000000,,2013-10-16 22:42:00,
2013-10-16 18:54:00,87.0,67.0,-100.00,North,354,2.0,4.0,51,0.00,,,0.00,147.000000,,2013-10-16 22:54:00,
2013-10-16 19:03:00,87.0,67.0,-100.00,North,354,2.0,4.0,51,0.00,,,0.00,147.000000,,2013-10-16 23:03:00,
2013-10-16 19:11:00,78.0,69.0,-100.00,NE,39,0.0,3.0,73,0.00,,,0.00,20.000000,,2013-10-16 23:11:00,
2013-10-16 19:42:00,78.0,69.0,-100.00,NE,39,0.0,3.0,73,0.00,,,0.00,20.000000,,2013-10-16 23:42:00,
2013-10-16 19:53:00,78.0,69.0,-100.00,NE,39,0.0,3.0,73,0.00,,,0.00,20.000000,,2013-10-16 23:53:00,
2013-10-16 20:02:00,78.0,69.0,-100.00,NE,39,0.0,3.0,73,0.00,,,0.00,20.000000,,2013-10-17 00:02:00,
2013-10-16 20:11:00,73.0,69.0,-100.00,NNE,28,0.0,3.0,88,0.00,,,0.00,0.000000,,2013-10-17 00:11:00,
2013-10-16 20:42:00,73.0,69.0,-100.00,NNE,28,0.0,3.0,88,0.00,,,0.00,0.000000,,2013-10-17 00:42:00,
2013-10-16 20:52:00,73.0,69.0,-100.00,NNE,28,0.0,3.0,88,0.00,,,0.00,0.000000,,2013-10-17 00:52:00,
2013-10-16 21:02:00,73.0,69.0,-100.00,NNE,28,0.0,3.0,88,0.00,,,0.00,0.000000,,2013-10-17 01:02:00,
2013-10-16 21:11:00,73.0,70.0,-100.00,East,96,0.0,2.0,91,0.00,,,0.00,0.000000,,2013-10-17 01:11:00,
2013-10-16 21:43:00,73.0,70.0,-100.00,East,96,0.0,2.0,91,0.00,,,0.00,0.000000,,2013-10-17 01:43:00,
2013-10-16 21:52:00,73.0,70.0,-100.00,East,96,0.0,2.0,91,0.00,,,0.00,0.000000,,2013-10-17 01:52:00,
2013-10-16 22:03:00,73.0,70.0,-100.00,East,96,0.0,2.0,91,0.00,,,0.00,0.000000,,2013-10-17 02:03:00,
2013-10-16 22:11:00,74.0,70.0,-100.00,NNW,331,1.0,2.0,88,0.00,,,0.00,0.000000,,2013-10-17 02:11:00,
2013-10-16 22:53:00,74.0,70.0,-100.00,NNW,331,1.0,2.0,88,0.00,,,0.00,0.000000,,2013-10-17 02:53:00,
2013-10-16 23:02:00,74.0,70.0,-100.00,NNW,331,1.0,2.0,88,0.00,,,0.00,0.000000,,2013-10-17 03:02:00,
2013-10-16 23:11:00,73.0,71.0,-100.00,NNE,19,0.0,2.0,93,0.00,,,0.00,0.000000,,2013-10-17 03:11:00,
2013-10-16 23:45:00,73.0,71.0,-100.00,NNE,19,0.0,2.0,93,0.00,,,0.00,0.000000,,2013-10-17 03:45:00,
2013-10-16 23:54:00,73.0,71.0,-100.00,NNE,19,0.0,2.0,93,0.00,,,0.00,0.000000,,2013-10-17 03:54:00,